createdAt,value
2017-08-02T00:00:02.638Z,70.3
2017-08-02T00:01:01.649Z,70.3
2017-08-02T00:01:32.174Z,70.3
2017-08-02T00:02:02.461Z,70.3
2017-08-02T00:02:32.976Z,70.3
2017-08-02T00:03:03.511Z,70.2
2017-08-02T00:03:34.018Z,70.2
2017-08-02T00:04:59.788Z,70.3
2017-08-02T00:05:58.866Z,70.3
2017-08-02T00:06:58.574Z,70.3
2017-08-02T00:07:57.782Z,70.3
2017-08-02T00:08:57.380Z,70.5
2017-08-02T00:09:56.969Z,70.4
2017-08-02T00:10:56.182Z,70.3
2017-08-02T00:11:55.886Z,70.4
2017-08-02T00:12:54.978Z,70.6
2017-08-02T00:13:54.700Z,70.6
2017-08-02T00:14:53.918Z,70.6
2017-08-02T00:15:53.500Z,70.6
2017-08-02T00:16:23.785Z,70.6
2017-08-02T00:17:52.061Z,70.8
2017-08-02T00:18:51.764Z,70.9
2017-08-02T00:19:50.850Z,71
2017-08-02T00:20:50.446Z,71.1
2017-08-02T00:21:50.027Z,71.1
2017-08-02T00:22:49.107Z,71.3
2017-08-02T00:23:48.580Z,71
2017-08-02T00:24:48.056Z,71
2017-08-02T00:25:18.444Z,71
2017-08-02T00:26:46.855Z,71
2017-08-02T00:27:46.561Z,71
2017-08-02T00:28:45.642Z,71.2
2017-08-02T00:29:45.231Z,71.5
2017-08-02T00:30:44.834Z,71.6
2017-08-02T00:31:43.690Z,71.5
2017-08-02T00:32:43.399Z,71.5
2017-08-02T00:33:43.106Z,71.5
2017-08-02T00:34:42.315Z,71.6
2017-08-02T00:35:41.287Z,71.8
2017-08-02T00:36:41.002Z,71.6
2017-08-02T00:37:40.595Z,71.5
2017-08-02T00:39:39.570Z,71.8
2017-08-02T00:40:38.923Z,72
2017-08-02T00:41:38.518Z,71.8
2017-08-02T00:42:37.500Z,71.8
2017-08-02T00:43:37.100Z,71.8
2017-08-02T00:44:36.573Z,72.1
2017-08-02T00:46:35.544Z,72.4
2017-08-02T00:47:34.629Z,72.4
2017-08-02T00:48:34.341Z,72.5
2017-08-02T00:49:33.548Z,72.5
2017-08-02T00:50:33.255Z,72.5
2017-08-02T00:51:32.359Z,72.4
2017-08-02T00:52:31.941Z,72.6
2017-08-02T00:53:31.177Z,72.6
2017-08-02T00:54:30.653Z,72.8
2017-08-02T00:55:30.238Z,72.9
2017-08-02T00:56:00.525Z,72.9
2017-08-02T00:56:31.436Z,73
2017-08-02T00:57:01.595Z,73
2017-08-02T00:57:32.380Z,73.1
2017-08-02T00:58:28.570Z,73
2017-08-02T00:59:27.774Z,73.2
2017-08-02T01:00:27.371Z,73.2
2017-08-02T01:01:26.574Z,73.2
2017-08-02T01:02:25.790Z,73.3
2017-08-02T01:03:25.492Z,73.5
2017-08-02T01:04:24.471Z,73.5
2017-08-02T01:05:24.059Z,73.5
2017-08-02T01:06:23.654Z,73.6
2017-08-02T01:07:22.741Z,73.6
2017-08-02T01:08:22.453Z,73.6
2017-08-02T01:09:21.540Z,73.5
2017-08-02T01:10:21.141Z,73.5
2017-08-02T01:11:20.738Z,73.6
2017-08-02T01:11:51.136Z,73.6
2017-08-02T01:12:21.533Z,73.8
2017-08-02T01:13:19.604Z,73.8
2017-08-02T01:14:18.820Z,73.8
2017-08-02T01:15:18.531Z,73.9
2017-08-02T01:16:17.748Z,74.1
2017-08-02T01:17:16.943Z,73.9
2017-08-02T01:18:16.634Z,73.9
2017-08-02T01:19:16.109Z,74.1
2017-08-02T01:20:15.311Z,74.2
2017-08-02T01:21:15.016Z,74.1
2017-08-02T01:22:13.992Z,74.2
2017-08-02T01:23:13.705Z,74
2017-08-02T01:24:12.921Z,74
2017-08-02T01:25:12.521Z,74
2017-08-02T01:26:11.603Z,74.2
2017-08-02T01:27:11.317Z,74.3
2017-08-02T01:28:10.900Z,74.2
2017-08-02T01:29:09.860Z,74.3
2017-08-02T01:30:09.452Z,74.3
2017-08-02T01:31:09.059Z,74.6
2017-08-02T01:32:08.268Z,74.7
2017-08-02T01:33:07.362Z,74.7
2017-08-02T01:34:06.963Z,74.8
2017-08-02T01:35:06.684Z,74.8
2017-08-02T01:36:05.896Z,74.8
2017-08-02T01:37:05.107Z,74.8
2017-08-02T01:38:04.822Z,74.9
2017-08-02T01:39:03.680Z,75
2017-08-02T01:40:03.395Z,75.1
2017-08-02T01:41:02.865Z,75.3
2017-08-02T01:42:02.470Z,75.4
2017-08-02T01:43:01.553Z,75.6
2017-08-02T01:44:01.028Z,75.5
2017-08-02T01:45:00.738Z,75.8
2017-08-02T01:45:59.714Z,75.9
2017-08-02T01:46:59.410Z,76.1
2017-08-02T01:47:58.994Z,76.1
2017-08-02T01:48:58.082Z,76
2017-08-02T01:49:57.810Z,76
2017-08-02T01:50:57.017Z,76
2017-08-02T01:51:27.299Z,76
2017-08-02T01:51:58.204Z,76
2017-08-02T01:52:28.722Z,76
2017-08-02T01:52:59.179Z,76.1
2017-08-02T01:53:29.577Z,76.1
2017-08-02T01:54:54.444Z,76
2017-08-02T01:55:54.141Z,76.1
2017-08-02T01:56:53.229Z,76.3
2017-08-02T01:57:52.942Z,76.3
2017-08-02T01:58:52.037Z,76.3
2017-08-02T01:59:51.505Z,76.3
2017-08-02T02:00:50.966Z,76.3
2017-08-02T02:01:50.440Z,76.3
2017-08-02T02:02:49.530Z,76.5
2017-08-02T02:03:20.193Z,76.5
2017-08-02T02:03:50.697Z,76.3
2017-08-02T02:04:20.970Z,76.3
2017-08-02T02:04:51.488Z,76.5
2017-08-02T02:05:22.008Z,76.5
2017-08-02T02:05:52.559Z,76.2
2017-08-02T02:06:22.958Z,76.2
2017-08-02T02:07:46.823Z,76.3
2017-08-02T02:08:45.911Z,76.4
2017-08-02T02:09:45.618Z,76.3
2017-08-02T02:10:44.819Z,76.4
2017-08-02T02:11:44.531Z,76.4
2017-08-02T02:12:43.618Z,76.5
2017-08-02T02:13:43.318Z,76.4
2017-08-02T02:14:42.279Z,76.6
2017-08-02T02:15:41.867Z,76.5
2017-08-02T02:16:41.593Z,76.7
2017-08-02T02:17:40.798Z,76.8
2017-08-02T02:18:40.417Z,76.9
2017-08-02T02:19:39.388Z,76.9
2017-08-02T02:20:39.099Z,76.9
2017-08-02T02:21:38.299Z,76.8
2017-08-02T02:22:37.402Z,76.8
2017-08-02T02:23:07.567Z,76.8
2017-08-02T02:23:38.460Z,76.8
2017-08-02T02:24:08.871Z,76.8
2017-08-02T02:24:39.391Z,76.9
2017-08-02T02:25:35.963Z,76.8
2017-08-02T02:26:35.439Z,76.9
2017-08-02T02:27:34.659Z,76.9
2017-08-02T02:28:33.861Z,76.9
2017-08-02T02:29:33.458Z,76.9
2017-08-02T02:30:32.662Z,77.1
2017-08-02T02:31:32.387Z,77
2017-08-02T02:32:31.595Z,77
2017-08-02T02:33:31.182Z,77.2
2017-08-02T02:34:30.279Z,77.3
2017-08-02T02:35:30.005Z,77.6
2017-08-02T02:36:29.220Z,77.7
2017-08-02T02:37:28.813Z,77.8
2017-08-02T02:38:28.039Z,77.7
2017-08-02T02:39:27.257Z,77.8
2017-08-02T02:40:26.858Z,77.8
2017-08-02T02:41:26.079Z,77.9
2017-08-02T02:42:25.799Z,78
2017-08-02T02:43:24.890Z,78
2017-08-02T02:44:24.366Z,78.3
2017-08-02T02:45:23.830Z,78.4
2017-08-02T02:45:54.355Z,78.4
2017-08-02T02:47:22.518Z,78.4
2017-08-02T02:48:21.752Z,78.4
2017-08-02T02:49:21.250Z,78.5
2017-08-02T02:50:20.607Z,78.7
2017-08-02T02:51:20.326Z,78.6
2017-08-02T02:52:19.397Z,78.5
2017-08-02T02:53:19.111Z,78.7
2017-08-02T02:54:18.206Z,78.5
2017-08-02T02:55:17.413Z,78.6
2017-08-02T02:56:17.135Z,78.6
2017-08-02T02:57:16.234Z,78.7
2017-08-02T02:58:15.823Z,78.9
2017-08-02T02:59:15.038Z,78.9
2017-08-02T03:00:14.750Z,79.1
2017-08-02T03:01:13.961Z,79.1
2017-08-02T03:01:44.486Z,79.1
2017-08-02T03:02:14.886Z,79.1
2017-08-02T03:03:12.350Z,79.2
2017-08-02T03:04:11.937Z,79.2
2017-08-02T03:05:11.652Z,79.2
2017-08-02T03:06:10.746Z,79.3
2017-08-02T03:07:10.449Z,79.3
2017-08-02T03:08:09.543Z,79.5
2017-08-02T03:09:09.127Z,79.5
2017-08-02T03:10:08.354Z,79.5
2017-08-02T03:11:07.563Z,79.4
2017-08-02T03:12:07.148Z,79.4
2017-08-02T03:13:06.742Z,79.3
2017-08-02T03:14:05.826Z,79.3
2017-08-02T03:15:05.549Z,79.3
2017-08-02T03:17:04.046Z,79.5
2017-08-02T03:18:03.638Z,79.5
2017-08-02T03:19:02.851Z,79.6
2017-08-02T03:20:02.064Z,79.6
2017-08-02T03:21:01.657Z,79.6
2017-08-02T03:22:00.748Z,79.6
2017-08-02T03:23:00.343Z,79.6
2017-08-02T03:23:59.700Z,79.7
2017-08-02T03:24:58.912Z,79.7
2017-08-02T03:25:58.518Z,79.9
2017-08-02T03:26:57.723Z,80
2017-08-02T03:27:57.316Z,80
2017-08-02T03:28:56.527Z,80
2017-08-02T03:29:55.739Z,80
2017-08-02T03:30:55.468Z,80.1
2017-08-02T03:31:25.870Z,80.1
2017-08-02T03:31:56.147Z,80.1
2017-08-02T03:32:26.534Z,80.1
2017-08-02T03:33:53.312Z,80.2
2017-08-02T03:34:53.017Z,80.4
2017-08-02T03:35:52.231Z,80.4
2017-08-02T03:36:51.074Z,80.3
2017-08-02T03:37:50.664Z,80.3
2017-08-02T03:38:50.143Z,80.2
2017-08-02T03:39:49.861Z,80.2
2017-08-02T03:40:49.062Z,80.2
2017-08-02T03:41:48.145Z,80.2
2017-08-02T03:42:47.728Z,80.2
2017-08-02T03:43:47.302Z,80.4
2017-08-02T03:44:46.390Z,80.2
2017-08-02T03:45:45.983Z,80.2
2017-08-02T03:47:44.972Z,80.1
2017-08-02T03:48:44.176Z,79.9
2017-08-02T03:49:43.268Z,79.9
2017-08-02T03:50:42.862Z,79.6
2017-08-02T03:51:42.455Z,79.3
2017-08-02T03:52:41.673Z,78.4
2017-08-02T03:53:40.873Z,78.5
2017-08-02T03:54:11.386Z,78.5
2017-08-02T03:54:41.895Z,78.9
2017-08-02T03:55:12.278Z,78.9
2017-08-02T03:56:39.159Z,78.8
2017-08-02T03:57:38.368Z,78.8
2017-08-02T03:58:37.964Z,78.8
2017-08-02T03:59:37.184Z,77.8
2017-08-02T04:00:36.385Z,78.2
2017-08-02T04:01:36.088Z,77.3
2017-08-02T04:02:35.058Z,77
2017-08-02T04:03:34.773Z,76.8
2017-08-02T04:04:33.983Z,76.9
2017-08-02T04:05:33.682Z,76.4
2017-08-02T04:06:32.897Z,76.5
2017-08-02T04:07:31.988Z,75.5
2017-08-02T04:08:31.588Z,75.8
2017-08-02T04:09:30.787Z,75.4
2017-08-02T04:10:30.509Z,75.6
2017-08-02T04:11:29.606Z,75.2
2017-08-02T04:12:29.319Z,74.9
2017-08-02T04:12:59.842Z,74.9
2017-08-02T04:13:30.363Z,75
2017-08-02T04:14:00.761Z,75
2017-08-02T04:15:27.153Z,74.7
2017-08-02T04:16:26.347Z,74.7
2017-08-02T04:17:26.049Z,74.7
2017-08-02T04:18:25.026Z,74.5
2017-08-02T04:19:24.726Z,74.7
2017-08-02T04:20:23.821Z,74.9
2017-08-02T04:21:23.424Z,74.8
2017-08-02T04:22:22.629Z,74.5
2017-08-02T04:23:22.207Z,74.9
2017-08-02T04:23:52.716Z,74.9
2017-08-02T04:24:22.992Z,74.9
2017-08-02T04:24:53.387Z,74.9
2017-08-02T04:25:23.920Z,74.9
2017-08-02T04:25:54.326Z,74.9
2017-08-02T04:27:19.701Z,75.2
2017-08-02T04:28:19.293Z,75
2017-08-02T04:29:18.389Z,74.8
2017-08-02T04:30:18.089Z,74.7
2017-08-02T04:31:17.296Z,74.7
2017-08-02T04:32:16.499Z,74.5
2017-08-02T04:33:16.208Z,74.5
2017-08-02T04:34:15.409Z,74.5
2017-08-02T04:35:14.623Z,74.7
2017-08-02T04:36:14.209Z,74.7
2017-08-02T04:37:13.417Z,74.7
2017-08-02T04:38:12.883Z,74.5
2017-08-02T04:39:12.099Z,74.9
2017-08-02T04:40:11.572Z,74.9
2017-08-02T04:41:10.786Z,74.9
2017-08-02T04:42:10.506Z,75
2017-08-02T04:43:09.727Z,74.9
2017-08-02T04:44:08.820Z,75.2
2017-08-02T04:45:08.300Z,74.9
2017-08-02T04:46:08.002Z,75
2017-08-02T04:47:07.202Z,75.2
2017-08-02T04:48:06.781Z,75.3
2017-08-02T04:49:05.873Z,75.4
2017-08-02T04:50:05.600Z,75.7
2017-08-02T04:51:04.569Z,75.7
2017-08-02T04:52:04.029Z,75.9
2017-08-02T04:53:03.617Z,76
2017-08-02T04:54:02.836Z,75.7
2017-08-02T04:55:02.560Z,75.7
2017-08-02T04:56:01.654Z,75.9
2017-08-02T04:57:01.006Z,75.7
2017-08-02T04:58:00.719Z,75.5
2017-08-02T04:58:59.812Z,75.3
2017-08-02T04:59:59.393Z,75.3
2017-08-02T05:00:58.540Z,75.1
2017-08-02T05:01:57.748Z,75.3
2017-08-02T05:03:56.849Z,75.7
2017-08-02T05:04:55.940Z,75.2
2017-08-02T05:06:54.826Z,75.8
2017-08-02T05:07:53.800Z,75.6
2017-08-02T05:08:53.767Z,75.6
2017-08-02T05:09:52.738Z,75.7
2017-08-02T05:10:52.340Z,75.7
2017-08-02T05:12:50.821Z,75.6
2017-08-02T05:13:50.423Z,75.6
2017-08-02T05:14:50.024Z,75.5
2017-08-02T05:16:48.770Z,75.4
2017-08-02T05:17:47.858Z,75.3
2017-08-02T05:18:47.561Z,75.1
2017-08-02T05:20:46.038Z,74.9
2017-08-02T05:21:16.441Z,74.9
2017-08-02T05:21:46.959Z,74.6
2017-08-02T05:22:17.494Z,74.6
2017-08-02T05:22:47.998Z,74.9
2017-08-02T05:23:18.527Z,74.9
2017-08-02T05:24:43.897Z,74.4
2017-08-02T05:25:42.872Z,74.5
2017-08-02T05:26:42.475Z,74.5
2017-08-02T05:27:42.062Z,74.5
2017-08-02T05:28:41.149Z,74.7
2017-08-02T05:29:40.366Z,74.6
2017-08-02T05:31:39.466Z,73.9
2017-08-02T05:32:38.658Z,73.4
2017-08-02T05:33:37.862Z,73.6
2017-08-02T05:34:37.562Z,73.8
2017-08-02T05:35:36.763Z,73.5
2017-08-02T05:36:36.478Z,73.3
2017-08-02T05:37:35.699Z,72.9
2017-08-02T05:38:34.791Z,72.3
2017-08-02T05:39:34.497Z,72.6
2017-08-02T05:40:33.844Z,72.7
2017-08-02T05:41:33.044Z,72.3
2017-08-02T05:42:32.253Z,72.4
2017-08-02T05:43:31.967Z,72.5
2017-08-02T05:44:31.055Z,72.5
2017-08-02T05:45:30.647Z,71.8
2017-08-02T05:46:29.839Z,71.1
2017-08-02T05:47:29.416Z,70.6
2017-08-02T05:48:29.018Z,70.4
2017-08-02T05:49:28.105Z,69.7
2017-08-02T05:50:27.307Z,68.1
2017-08-02T05:51:27.015Z,67.1
2017-08-02T05:52:26.110Z,67.3
2017-08-02T05:53:25.592Z,67.4
2017-08-02T05:54:24.951Z,66.8
2017-08-02T05:55:24.432Z,66.8
2017-08-02T05:56:23.623Z,66.9
2017-08-02T05:57:23.219Z,66.9
2017-08-02T05:58:22.301Z,66.9
2017-08-02T05:59:22.012Z,66.9
2017-08-02T06:00:21.113Z,66.3
2017-08-02T06:01:20.452Z,66.3
2017-08-02T06:01:50.745Z,66.3
2017-08-02T06:03:19.532Z,66.3
2017-08-02T06:03:50.045Z,66.3
2017-08-02T06:04:20.314Z,66.3
2017-08-02T06:05:18.388Z,64.6
2017-08-02T06:05:48.904Z,64.6
2017-08-02T06:12:13.636Z,64.6
2017-08-02T06:13:13.225Z,64.6
2017-08-02T06:13:43.744Z,64.6
2017-08-02T06:14:14.265Z,64.6
2017-08-02T06:14:44.780Z,64.6
2017-08-02T06:15:15.306Z,64.6
2017-08-02T06:15:45.827Z,64.6
2017-08-02T06:17:10.700Z,61.7
2017-08-02T06:18:10.283Z,61.7
2017-08-02T06:19:09.374Z,61.7
2017-08-02T06:21:08.473Z,61.7
2017-08-02T06:22:07.443Z,61.7
2017-08-02T06:24:06.543Z,61.7
2017-08-02T06:25:06.011Z,61.7
2017-08-02T06:26:05.097Z,61.7
2017-08-02T06:27:04.818Z,61.7
2017-08-02T06:28:03.904Z,61.7
2017-08-02T06:29:03.512Z,61.7
2017-08-02T06:30:02.484Z,61.7
2017-08-02T06:32:01.241Z,60.9
2017-08-02T06:33:00.831Z,60.9
2017-08-02T06:34:00.323Z,60.9
2017-08-02T06:34:59.536Z,60.9
2017-08-02T06:35:59.127Z,60.9
2017-08-02T06:36:58.206Z,60.9
2017-08-02T06:37:57.865Z,60.9
2017-08-02T06:38:56.956Z,60.9
2017-08-02T06:39:56.425Z,60.9
2017-08-02T06:40:55.898Z,60.9
2017-08-02T06:41:55.378Z,60.9
2017-08-02T06:42:55.075Z,60.9
2017-08-02T06:43:54.154Z,60.9
2017-08-02T06:44:53.740Z,60.9
2017-08-02T06:45:24.252Z,60.9
2017-08-02T06:46:52.518Z,60.9
2017-08-02T06:47:51.479Z,60.9
2017-08-02T06:48:50.973Z,60.9
2017-08-02T06:49:50.439Z,60.9
2017-08-02T06:50:50.142Z,60.9
2017-08-02T06:51:49.233Z,60.9
2017-08-02T06:52:48.945Z,60.9
2017-08-02T06:54:47.527Z,60.9
2017-08-02T06:55:47.236Z,60.9
2017-08-02T06:56:17.617Z,60.9
2017-08-02T06:56:48.017Z,60.9
2017-08-02T06:57:45.706Z,60.9
2017-08-02T06:58:45.427Z,60.9
2017-08-02T06:59:44.272Z,60.9
2017-08-02T07:00:43.866Z,60.9
2017-08-02T07:01:14.260Z,60.9
2017-08-02T07:02:42.659Z,60.9
2017-08-02T07:03:42.371Z,60.9
2017-08-02T07:04:41.580Z,60.9
2017-08-02T07:05:40.779Z,60.9
2017-08-02T07:06:40.356Z,60.9
2017-08-02T07:07:39.570Z,60.9
2017-08-02T07:08:39.040Z,60.9
2017-08-02T07:09:38.745Z,60.9
2017-08-02T07:10:37.962Z,60.9
2017-08-02T07:11:08.474Z,60.9
2017-08-02T07:11:38.982Z,60.9
2017-08-02T07:12:09.514Z,60.9
2017-08-02T07:13:36.406Z,60.9
2017-08-02T07:14:35.503Z,60.9
2017-08-02T07:15:35.209Z,60.9
2017-08-02T07:16:34.421Z,60.9
2017-08-02T07:17:33.551Z,60.9
2017-08-02T07:18:33.293Z,60.9
2017-08-02T07:19:32.376Z,60.9
2017-08-02T07:20:32.092Z,60.9
2017-08-02T07:22:30.569Z,60.9
2017-08-02T07:23:00.857Z,60.9
2017-08-02T07:23:31.377Z,60.9
2017-08-02T07:24:01.824Z,60.9
2017-08-02T07:24:32.349Z,60.9
2017-08-02T07:25:29.039Z,60.9
2017-08-02T07:26:28.240Z,60.9
2017-08-02T07:27:27.721Z,60.9
2017-08-02T07:28:27.441Z,60.9
2017-08-02T07:29:26.535Z,60.9
2017-08-02T07:30:26.147Z,60.9
2017-08-02T07:31:25.347Z,60.9
2017-08-02T07:32:25.058Z,60.9
2017-08-02T07:33:24.262Z,60.9
2017-08-02T07:34:23.973Z,60.9
2017-08-02T07:35:23.178Z,60.9
2017-08-02T07:36:22.779Z,60.9
2017-08-02T07:37:21.981Z,60.9
2017-08-02T07:38:21.442Z,60.9
2017-08-02T07:39:20.922Z,60.9
2017-08-02T07:40:20.012Z,60.9
2017-08-02T07:40:50.414Z,60.9
2017-08-02T07:41:20.588Z,60.9
2017-08-02T07:41:51.006Z,60.9
2017-08-02T07:42:21.285Z,60.9
2017-08-02T07:42:51.684Z,60.9
2017-08-02T07:44:18.052Z,60.9
2017-08-02T07:45:17.261Z,60.9
2017-08-02T07:46:16.341Z,60.9
2017-08-02T07:47:15.924Z,60.9
2017-08-02T07:48:15.506Z,60.9
2017-08-02T07:49:15.105Z,60.9
2017-08-02T07:50:14.320Z,60.9
2017-08-02T07:51:13.525Z,60.9
2017-08-02T07:51:44.042Z,60.9
2017-08-02T07:52:14.554Z,60.9
2017-08-02T07:52:45.081Z,60.9
2017-08-02T07:53:15.608Z,60.9
2017-08-02T07:53:46.136Z,60.9
2017-08-02T07:54:16.661Z,60.9
2017-08-02T07:54:47.200Z,60.9
2017-08-02T07:55:17.709Z,60.9
2017-08-02T07:55:48.102Z,60.9
2017-08-02T07:57:09.968Z,60.9
2017-08-02T07:58:09.693Z,60.9
2017-08-02T07:59:08.768Z,60.9
2017-08-02T08:00:08.481Z,60.9
2017-08-02T08:02:07.104Z,60.9
2017-08-02T08:03:06.712Z,60.9
2017-08-02T08:04:05.924Z,60.9
2017-08-02T08:04:36.317Z,60.9
2017-08-02T08:06:04.596Z,60.9
2017-08-02T08:07:04.071Z,60.9
2017-08-02T08:08:03.553Z,60.9
2017-08-02T08:09:03.265Z,60.9
2017-08-02T08:10:02.376Z,60.9
2017-08-02T08:11:01.845Z,60.9
2017-08-02T08:12:01.323Z,60.9
2017-08-02T08:14:00.420Z,60.9
2017-08-02T08:14:59.650Z,60.9
2017-08-02T08:15:59.229Z,60.9
2017-08-02T08:16:58.429Z,60.9
2017-08-02T08:17:58.165Z,60.9
2017-08-02T08:18:57.139Z,60.9
2017-08-02T08:19:56.839Z,60.9
2017-08-02T08:20:55.924Z,60.9
2017-08-02T08:21:55.636Z,60.9
2017-08-02T08:22:54.842Z,60.9
2017-08-02T08:23:54.428Z,60.9
2017-08-02T08:24:24.835Z,60.9
2017-08-02T08:24:55.344Z,60.9
2017-08-02T08:26:52.698Z,60.9
2017-08-02T08:27:51.790Z,60.9
2017-08-02T08:28:51.258Z,60.9
2017-08-02T08:29:50.885Z,60.9
2017-08-02T08:30:50.595Z,60.9
2017-08-02T08:31:49.337Z,60.9
2017-08-02T08:32:49.314Z,60.9
2017-08-02T08:33:48.789Z,60.9
2017-08-02T08:34:48.006Z,60.9
2017-08-02T08:35:18.413Z,60.9
2017-08-02T08:35:48.809Z,60.9
2017-08-02T08:36:19.198Z,60.9
2017-08-02T08:36:49.705Z,60.9
2017-08-02T08:37:46.174Z,60.9
2017-08-02T08:38:45.763Z,60.9
2017-08-02T08:39:44.850Z,56.8
2017-08-02T08:40:44.566Z,56.8
2017-08-02T08:41:43.766Z,56.8
2017-08-02T08:42:43.358Z,56.8
2017-08-02T08:43:43.068Z,56.8
2017-08-02T08:44:42.277Z,56.8
2017-08-02T08:45:41.486Z,56.8
2017-08-02T08:46:41.205Z,56.8
2017-08-02T08:47:40.412Z,56.8
2017-08-02T08:48:40.119Z,56.8
2017-08-02T08:49:39.214Z,56.8
2017-08-02T08:50:38.800Z,56.8
2017-08-02T08:51:09.314Z,56.8
2017-08-02T08:51:39.843Z,56.8
2017-08-02T08:52:10.353Z,56.8
2017-08-02T08:53:37.130Z,56.8
2017-08-02T08:54:36.219Z,56.8
2017-08-02T08:55:35.802Z,56.8
2017-08-02T08:56:35.263Z,56.8
2017-08-02T08:57:34.974Z,56.8
2017-08-02T08:58:34.071Z,56.8
2017-08-02T08:59:33.773Z,56.8
2017-08-02T09:00:32.846Z,56.8
2017-08-02T09:02:31.699Z,56.8
2017-08-02T09:03:31.414Z,56.8
2017-08-02T09:06:29.903Z,56.8
2017-08-02T09:07:28.995Z,56.8
2017-08-02T09:08:28.706Z,56.8
2017-08-02T09:09:27.907Z,56.8
2017-08-02T09:10:27.495Z,56.8
2017-08-02T09:11:26.861Z,56.8
2017-08-02T09:12:26.064Z,56.8
2017-08-02T09:13:25.791Z,56.8
2017-08-02T09:14:25.385Z,56.8
2017-08-02T09:15:24.353Z,56.8
2017-08-02T09:16:23.946Z,56.8
2017-08-02T09:18:22.934Z,56.8
2017-08-02T09:24:19.366Z,56.8
2017-08-02T09:27:17.857Z,56.8
2017-08-02T09:29:16.643Z,56.8
2017-08-02T09:31:15.947Z,56.8
2017-08-02T09:31:45.964Z,56.8
2017-08-02T09:32:16.487Z,56.8
2017-08-02T09:34:13.850Z,56.8
2017-08-02T09:34:44.365Z,56.8
2017-08-02T09:37:12.039Z,56.8
2017-08-02T09:39:11.151Z,56.8
2017-08-02T09:41:10.134Z,56.8
2017-08-02T09:42:09.100Z,53.9
2017-08-02T09:44:08.088Z,53.9
2017-08-02T09:44:38.487Z,53.9
2017-08-02T09:45:08.901Z,53.9
2017-08-02T09:45:39.410Z,53.9
2017-08-02T09:48:06.197Z,53.9
2017-08-02T09:52:03.954Z,53.2
2017-08-02T09:54:02.432Z,54.3
2017-08-02T09:55:02.132Z,54.3
2017-08-02T09:56:01.847Z,54.3
2017-08-02T09:58:00.442Z,53.4
2017-08-02T09:59:59.305Z,53.6
2017-08-02T10:00:59.001Z,53.7
2017-08-02T10:01:57.966Z,53.7
2017-08-02T10:02:57.659Z,53.7
2017-08-02T10:03:28.070Z,53.7
2017-08-02T10:06:55.751Z,53.1
2017-08-02T10:07:55.335Z,53.7
2017-08-02T10:08:54.429Z,53.7
2017-08-02T10:11:52.797Z,53.4
2017-08-02T10:12:52.436Z,53.4
2017-08-02T10:13:51.517Z,53.4
2017-08-02T10:14:21.790Z,53.4
2017-08-02T10:15:50.703Z,53.4
2017-08-02T10:16:21.096Z,53.4
2017-08-02T10:16:51.260Z,53.4
2017-08-02T10:17:21.670Z,53.4
2017-08-02T10:18:48.818Z,53.4
2017-08-02T10:20:47.909Z,52.4
2017-08-02T10:21:47.498Z,52.6
2017-08-02T10:22:47.200Z,52.6
2017-08-02T10:24:46.065Z,51.3
2017-08-02T10:25:16.578Z,51.3
2017-08-02T10:25:46.971Z,51.3
2017-08-02T10:26:45.172Z,52.5
2017-08-02T10:27:44.134Z,52.2
2017-08-02T10:29:43.222Z,51.9
2017-08-02T10:31:42.329Z,51.7
2017-08-02T10:32:41.525Z,51.7
2017-08-02T10:33:41.005Z,52.2
2017-08-02T10:35:39.985Z,52.4
2017-08-02T10:36:39.346Z,53.1
2017-08-02T10:37:39.326Z,53.1
2017-08-02T10:38:38.530Z,53.1
2017-08-02T10:39:38.242Z,52.8
2017-08-02T10:40:37.451Z,53.1
2017-08-02T10:43:35.956Z,53.6
2017-08-02T10:44:35.436Z,53.3
2017-08-02T10:49:32.863Z,53.6
2017-08-02T10:50:32.568Z,50.5
2017-08-02T10:51:32.031Z,50.3
2017-08-02T10:52:31.116Z,50.5
2017-08-02T10:56:29.499Z,48.9
2017-08-02T10:59:27.998Z,48.1
2017-08-02T11:00:27.199Z,47.4
2017-08-02T11:01:26.903Z,47.4
2017-08-02T11:02:25.996Z,47.7
2017-08-02T11:03:25.572Z,48
2017-08-02T11:04:25.187Z,48
2017-08-02T11:05:24.891Z,48
2017-08-02T11:06:23.973Z,48
2017-08-02T11:07:23.830Z,48
2017-08-02T11:08:23.293Z,48
2017-08-02T11:09:22.991Z,48.7
2017-08-02T11:10:22.201Z,48.5
2017-08-02T11:11:21.909Z,48.8
2017-08-02T11:13:21.019Z,48.8
2017-08-02T11:14:20.501Z,48.9
2017-08-02T11:15:19.711Z,48.6
2017-08-02T11:16:19.304Z,48.6
2017-08-02T11:17:18.764Z,48.4
2017-08-02T11:30:12.190Z,48.5
2017-08-02T11:32:11.174Z,48.5
2017-08-02T11:35:09.692Z,47.5
2017-08-02T11:44:05.302Z,49.4
2017-08-02T11:47:03.778Z,49.4
2017-08-02T11:52:01.315Z,49.4
2017-08-02T11:53:01.039Z,48.4
2017-08-02T11:54:59.531Z,48.4
2017-08-02T11:56:58.889Z,47.3
2017-08-02T11:57:29.407Z,47.3
2017-08-02T11:57:59.806Z,47.3
2017-08-02T11:58:30.202Z,47.3
2017-08-02T11:59:00.472Z,47.2
2017-08-02T11:59:57.565Z,47.2
2017-08-02T12:00:56.786Z,47
2017-08-02T12:01:56.380Z,47.5
2017-08-02T12:02:55.969Z,47.4
2017-08-02T12:03:55.667Z,47.3
2017-08-02T12:05:54.271Z,47.6
2017-08-02T12:06:53.980Z,47.5
2017-08-02T12:08:52.970Z,46.9
2017-08-02T12:09:52.566Z,46.2
2017-08-02T12:10:52.154Z,47.1
2017-08-02T12:11:51.375Z,47.1
2017-08-02T12:12:51.078Z,46.6
2017-08-02T12:13:50.542Z,46.8
2017-08-02T12:14:50.134Z,46.8
2017-08-02T12:15:49.714Z,46.9
2017-08-02T12:16:48.923Z,46.9
2017-08-02T12:17:48.518Z,46.9
2017-08-02T12:18:48.212Z,46.9
2017-08-02T12:19:18.612Z,46.9
2017-08-02T12:19:49.133Z,46.1
2017-08-02T12:21:46.873Z,46.6
2017-08-02T12:24:45.369Z,45.6
2017-08-02T12:25:44.711Z,45.4
2017-08-02T12:26:44.410Z,45.4
2017-08-02T12:27:44.008Z,45.4
2017-08-02T12:29:42.999Z,46
2017-08-02T12:30:42.360Z,46.6
2017-08-02T12:31:41.840Z,46.6
2017-08-02T12:32:41.541Z,44.9
2017-08-02T12:33:41.258Z,44.9
2017-08-02T12:34:40.469Z,46.3
2017-08-02T12:35:40.179Z,45.6
2017-08-02T12:36:39.378Z,45.6
2017-08-02T12:37:38.965Z,44.9
2017-08-02T12:38:38.563Z,45.2
2017-08-02T12:39:09.088Z,45.2
2017-08-02T12:39:39.610Z,45.3
2017-08-02T12:40:37.806Z,45.3
2017-08-02T12:41:37.504Z,45.3
2017-08-02T12:42:36.477Z,45.3
2017-08-02T12:43:36.080Z,46
2017-08-02T12:44:35.802Z,45.7
2017-08-02T12:45:35.524Z,44.7
2017-08-02T12:46:34.730Z,44.7
2017-08-02T12:47:34.081Z,44.6
2017-08-02T12:48:34.205Z,45.5
2017-08-02T12:49:33.301Z,45.2
2017-08-02T12:50:33.018Z,45.3
2017-08-02T12:51:32.719Z,45.7
2017-08-02T12:52:32.088Z,45.2
2017-08-02T12:53:31.799Z,45
2017-08-02T12:54:31.498Z,45.5
2017-08-02T12:55:02.014Z,45.5
2017-08-02T12:55:32.558Z,45.5
2017-08-02T12:56:03.071Z,45.5
2017-08-02T12:56:33.584Z,45.7
2017-08-02T12:57:29.544Z,45.9
2017-08-02T12:58:29.275Z,45.9
2017-08-02T12:59:28.852Z,45.8
2017-08-02T13:00:28.579Z,45.9
2017-08-02T13:01:28.179Z,46.4
2017-08-02T13:02:27.380Z,46.4
2017-08-02T13:04:26.481Z,46.8
2017-08-02T13:05:26.070Z,47.2
2017-08-02T13:06:25.767Z,46.8
2017-08-02T13:07:25.490Z,46.5
2017-08-02T13:08:24.695Z,46.2
2017-08-02T13:09:24.297Z,45.9
2017-08-02T13:10:24.017Z,45.8
2017-08-02T13:11:23.720Z,45.8
2017-08-02T13:12:23.331Z,45.5
2017-08-02T13:13:22.530Z,45.5
2017-08-02T13:14:22.122Z,45.6
2017-08-02T13:15:21.721Z,45.9
2017-08-02T13:16:21.427Z,45.9
2017-08-02T13:17:20.916Z,46
2017-08-02T13:18:20.641Z,46.5
2017-08-02T13:19:19.853Z,46.1
2017-08-02T13:20:19.327Z,45.7
2017-08-02T13:22:18.431Z,46.5
2017-08-02T13:23:18.018Z,46.2
2017-08-02T13:25:17.117Z,45.8
2017-08-02T13:28:15.990Z,44.9
2017-08-02T13:29:15.648Z,46
2017-08-02T13:30:14.864Z,46.2
2017-08-02T13:31:14.451Z,44
2017-08-02T13:32:14.196Z,44.6
2017-08-02T13:33:13.923Z,44.6
2017-08-02T13:34:13.124Z,44.6
2017-08-02T13:35:12.701Z,44.8
2017-08-02T13:36:12.170Z,45.6
2017-08-02T13:37:11.756Z,45.7
2017-08-02T13:38:11.463Z,46
2017-08-02T13:39:11.059Z,45.4
2017-08-02T13:40:10.762Z,45.2
2017-08-02T13:41:09.945Z,44.4
2017-08-02T13:42:09.649Z,45.1
2017-08-02T13:43:09.239Z,45.7
2017-08-02T13:44:08.837Z,44.8
2017-08-02T13:45:08.554Z,45.2
2017-08-02T13:46:07.776Z,45.4
2017-08-02T13:46:38.172Z,45.4
2017-08-02T13:47:08.571Z,45
2017-08-02T13:47:38.973Z,45
2017-08-02T13:48:09.371Z,44.8
2017-08-02T13:48:39.764Z,44.8
2017-08-02T13:49:10.279Z,44.7
2017-08-02T13:49:40.781Z,44.7
2017-08-02T13:50:11.309Z,44.7
2017-08-02T13:50:41.826Z,44.7
2017-08-02T13:52:05.335Z,45.1
2017-08-02T13:53:04.924Z,45.2
2017-08-02T13:54:04.522Z,45.2
2017-08-02T13:55:04.231Z,44.8
2017-08-02T13:56:03.815Z,44.7
2017-08-02T13:57:02.894Z,45.1
2017-08-02T13:58:02.492Z,45.3
2017-08-02T13:59:02.208Z,44.5
2017-08-02T14:00:01.814Z,45
2017-08-02T14:00:31.987Z,45
2017-08-02T14:02:00.766Z,45.2
2017-08-02T14:03:00.485Z,45.2
2017-08-02T14:04:00.198Z,45.1
2017-08-02T14:05:59.296Z,44.2
2017-08-02T14:06:58.510Z,44.9
2017-08-02T14:12:56.238Z,45.5
2017-08-02T14:13:55.444Z,45.8
2017-08-02T14:15:54.546Z,45
2017-08-02T14:16:54.138Z,45.5
2017-08-02T14:17:53.732Z,45.1
2017-08-02T14:18:53.318Z,45.1
2017-08-02T14:19:52.928Z,45.2
2017-08-02T14:20:23.316Z,45.2